AirNav   Air Wisconsin Up To $57,000 Bonus
 
 1366 users online  

4FD9 Bowman's Beach Helistop
Sanibel, Florida, USA

GOING TO SANIBEL?


FAA INFORMATION EFFECTIVE 02 JANUARY 2020

Location

FAA Identifier: 4FD9
Lat/Long: 26-27-45.6200N 082-09-18.1600W
26-27.760333N 082-09.302667W
26.4626722,-82.1550444
(estimated)
Elevation: 5 ft. / 2 m (estimated)
Variation: 02W (1985)
Time zone: UTC -5 (UTC -4 during Daylight Saving Time)
Zip code: 33957

Heliport Operations

Heliport use: Private use. Permission required prior to landing
Activation date: 03/1988
Control tower: no
ARTCC: MIAMI CENTER
FSS: MIAMI FLIGHT SERVICE STATION
Attendance: UNATNDD
Segmented circle: no

Heliport Communications

WX ASOS at FMY (17 nm NE): 123.725 (239-936-2318)

Nearby radio navigation aids

VOR radial/distance  VOR name  Freq  Var
RSWr261/20.8LEE COUNTY VORTAC111.8002W
CYYr315/27.5CYPRESS VOR/DME108.6003W
PGDr204/(28.6)PUNTA GORDA VOR110.2006W

 
NDB name  Hdg/Dist  Freq  Var  ID
CALOO257/11.534103WFM ..-. --

Heliport Services

Runway Information

Helipad H1

Dimensions: 81 x 81 ft. / 25 x 25 m
Surface: turf
Latitude: 26-27.760333N
Longitude: 082-09.302667W
Elevation: 5.0 ft.
Traffic pattern: leftleft

Heliport Ownership and Management from official FAA records

Ownership: Publicly-owned
Owner: LEE CO MOSQUITO CONTROL DIST
15191 HOMESTEAD RD
LEHIGH ACRES, FL 33971
Phone 239-694-2174
Manager: RITA MAISS
15191 HOMESTEAD RD
LEHIGH ACRES, FL 33971
Phone 239-694-2174
T. WAYNE GALE

Additional Remarks

FOR CD CTC FORT MYERS APCH AT 239-768-1377, WHEN APCH CLSD CTC MIAMI ARTCC AT 305-716-1731.

Instrument Procedures

There are no published instrument procedures at 4FD9.

Some nearby airports with instrument procedures:

KFMY - Page Field Airport (17 nm NE)
KRSW - Southwest Florida International Airport (22 nm E)
KAPF - Naples Municipal Airport (28 nm SE)
KPGD - Punta Gorda Airport (29 nm N)
KMKY - Marco Island Executive Airport (38 nm SE)
 
Loc | Ops | Rwys | IFR | FBO | Links
Com | Nav | Svcs | Stats | Notes


 
Area around 4FD9 (Bowman's Beach Helistop)
 
Road maps at: MapQuest Bing Google
 
Aerial photo
No photo
 
Sectional chart

 
Airport distance calculator
Flying to Bowman's Beach Helistop? Find the distance to fly.

From to 4FD9

Sunrise and sunset
Times for 23-Jan-2020
 Local
(UTC-5)
 Zulu
(UTC)
Morning civil twilight06:5311:53
Sunrise07:1812:18
Sunset18:0323:03
Evening civil twilight18:2823:28

Current date and time
Zulu (UTC)  23-Jan-2020 23:38:40
Local (UTC-5)  23-Jan-2020 18:38:40
 
METAR
KFMY 
17nm NE 
232253Z 00000KT 10SM CLR 24/14 A2998 RMK AO2 SLP152 T02390139
KRSW 
21nm E 
232253Z 04003KT 10SM CLR 22/14 A2998 RMK AO2 SLP149 T02220144
KPGD 
28nm N 
232253Z 06004KT 10SM CLR 21/14 A3000 RMK AO2 SLP156 T02060139
KAPF 
29nm SE 
232253Z 32003KT 10SM CLR 22/16 A2998 RMK AO2 SLP150 T02220161
TAF
KFMY 
17nm NE 
231736Z 2318/2418 05007KT P6SM SCT030 SCT250 FM232100 09007KT P6SM SCT040 BKN250 FM240700 VRB03KT 2SM BR OVC006 FM241500 10004KT P6SM FEW010 SCT030
KRSW 
21nm E 
231736Z 2318/2418 05007KT P6SM SCT030 SCT250 FM232100 08007KT P6SM SCT040 BKN250 FM240700 VRB03KT 2SM BR OVC006 FM241500 08004KT P6SM FEW010 SCT030
NOTAMs
Click for the latest NOTAMs
NOTAMs are issued by the DoD/FAA and will open in a separate window not controlled by AirNav.

 

 
 

Would you like to see your business listed on this page?

 If your business provides an interesting product or service to pilots, flight crews, aircraft, or users of the Bowman's Beach Helistop, you should consider listing it here.  To start the listing process, click on the button below
 
Add a business
 

Other Pages about Bowman's Beach Helistop

Update a link
 
Copyright © AirNav, LLC. All rights reserved. Privacy Policy  Contact